Time;durP1;ratioP1;P1;durP2;ratioP2;P2;SDS_P1;SDS_P2;PMS_P1;PMS_P2;Temp;Humidity;BMP_temperature;BMP_pressure;BME280_temperature;BME280_humidity;BME280_pressure;Samples;Min_cycle;Max_cycle;Signal;HPM_P1;HPM_P2
2020/12/30 00:00:49;;;;;;;6.47;1.90;;;4.40;97.10;;;;;;5061366;28;20138;-71
2020/12/30 00:03:14;;;;;;;5.32;2.30;;;4.40;97.30;;;;;;5078516;28;20134;-71
2020/12/30 00:05:40;;;;;;;3.72;1.88;;;4.40;97.40;;;;;;5078970;28;20407;-72
2020/12/30 00:08:06;;;;;;;3.88;1.73;;;4.40;97.40;;;;;;5061241;28;20116;-71
2020/12/30 00:10:32;;;;;;;3.90;1.90;;;4.40;97.40;;;;;;5078977;28;20110;-71
2020/12/30 00:12:58;;;;;;;5.75;1.92;;;4.40;97.30;;;;;;5078880;28;20029;-72
2020/12/30 00:15:23;;;;;;;5.22;1.90;;;4.50;97.30;;;;;;5078859;28;20048;-71
2020/12/30 00:17:49;;;;;;;5.18;1.75;;;4.50;97.20;;;;;;5078784;28;20133;-71
2020/12/30 00:20:17;;;;;;;3.75;1.55;;;4.50;97.10;;;;;;5078785;28;20025;-72
2020/12/30 00:22:44;;;;;;;2.58;1.75;;;4.40;97.30;;;;;;5078873;28;20359;-72
2020/12/30 00:25:10;;;;;;;4.97;2.25;;;4.40;97.80;;;;;;5078878;28;20074;-71
2020/12/30 00:27:39;;;;;;;4.78;1.80;;;4.40;97.70;;;;;;5078553;28;20060;-71
2020/12/30 00:30:22;;;;;;;6.13;2.88;;;4.40;97.50;;;;;;5078735;28;20074;-71
2020/12/30 00:32:48;;;;;;;3.97;1.88;;;4.50;97.40;;;;;;5078668;28;20139;-72
2020/12/30 00:35:16;;;;;;;2.78;1.65;;;4.50;97.30;;;;;;5078365;28;20028;-72
2020/12/30 00:37:42;;;;;;;3.13;1.83;;;4.50;97.30;;;;;;5078640;28;20024;-72
2020/12/30 00:40:08;;;;;;;3.65;1.75;;;4.50;97.20;;;;;;5078417;28;20031;-71
2020/12/30 00:42:35;;;;;;;4.88;1.92;;;4.50;97.20;;;;;;5078318;28;20436;-72
2020/12/30 00:45:02;;;;;;;4.35;2.28;;;4.60;97.20;;;;;;5078194;28;20095;-72
2020/12/30 00:47:28;;;;;;;5.53;2.45;;;4.60;97.20;;;;;;5078093;28;20491;-72
2020/12/30 00:49:54;;;;;;;5.63;2.80;;;4.60;97.00;;;;;;5078065;28;20029;-72
2020/12/30 00:52:20;;;;;;;4.43;2.13;;;4.70;96.70;;;;;;5078214;28;20040;-71
2020/12/30 00:54:45;;;;;;;7.90;2.90;;;4.70;96.60;;;;;;5078496;28;20029;-71
2020/12/30 00:57:11;;;;;;;8.20;2.95;;;4.70;96.30;;;;;;5078145;28;20028;-72
2020/12/30 00:59:39;;;;;;;4.25;2.45;;;4.60;96.40;;;;;;5078208;28;20176;-72
2020/12/30 01:02:05;;;;;;;5.00;2.00;;;4.60;96.80;;;;;;5078153;28;20024;-72
2020/12/30 01:04:30;;;;;;;6.63;1.60;;;4.60;96.90;;;;;;5078075;28;20051;-71
2020/12/30 01:06:56;;;;;;;4.78;2.00;;;4.60;96.30;;;;;;5077834;28;20173;-71
2020/12/30 01:09:23;;;;;;;3.30;2.13;;;4.50;96.50;;;;;;5077983;28;20025;-71
2020/12/30 01:11:49;;;;;;;5.50;2.42;;;4.50;96.50;;;;;;5077698;28;20469;-71
2020/12/30 01:14:14;;;;;;;3.30;1.88;;;4.60;96.40;;;;;;5076608;28;20025;-71
2020/12/30 01:16:40;;;;;;;6.50;2.45;;;4.60;96.40;;;;;;5077668;28;20027;-71
2020/12/30 01:19:07;;;;;;;3.15;1.85;;;4.60;96.50;;;;;;5077577;28;20416;-71
2020/12/30 01:21:42;;;;;;;7.55;6.93;;;4.50;96.70;;;;;;5077616;28;20082;-71
2020/12/30 01:24:08;;;;;;;6.50;3.20;;;4.60;97.10;;;;;;5077865;28;20078;-72
2020/12/30 01:26:34;;;;;;;6.32;3.10;;;4.60;96.90;;;;;;5059741;28;20028;-71
2020/12/30 01:29:00;;;;;;;5.57;2.50;;;4.70;96.60;;;;;;5077355;28;20439;-71
2020/12/30 01:31:30;;;;;;;7.57;3.30;;;4.70;96.30;;;;;;5077388;28;20024;-71
2020/12/30 01:33:56;;;;;;;5.47;2.15;;;4.70;95.80;;;;;;5077208;28;20096;-71
2020/12/30 01:36:22;;;;;;;4.45;1.67;;;4.70;95.50;;;;;;5077278;28;20416;-71
2020/12/30 01:38:48;;;;;;;4.43;1.55;;;4.70;95.30;;;;;;5077467;28;20468;-71
2020/12/30 01:41:14;;;;;;;3.33;2.17;;;4.60;94.60;;;;;;5077114;28;20044;-71
2020/12/30 01:43:40;;;;;;;3.17;1.33;;;4.60;94.40;;;;;;5077327;28;20059;-71
2020/12/30 01:46:06;;;;;;;3.08;1.48;;;4.60;94.20;;;;;;5077008;28;20095;-71
2020/12/30 01:48:34;;;;;;;3.03;1.38;;;4.50;94.80;;;;;;5076898;28;20044;-72
2020/12/30 01:51:01;;;;;;;2.67;1.17;;;4.50;94.30;;;;;;5077301;28;20020;-71
2020/12/30 01:53:26;;;;;;;3.80;1.08;;;4.40;94.50;;;;;;5077377;28;20029;-71
2020/12/30 01:55:54;;;;;;;6.07;2.05;;;4.40;95.30;;;;;;5076865;28;20327;-71
2020/12/30 01:58:20;;;;;;;14.05;2.25;;;4.40;96.10;;;;;;5077336;28;20149;-71
2020/12/30 02:00:52;;;;;;;2.40;1.80;;;4.30;96.70;;;;;;5076927;28;20104;-71
2020/12/30 02:03:19;;;;;;;1.75;1.20;;;4.30;97.00;;;;;;5077145;28;20301;-71
2020/12/30 02:05:45;;;;;;;3.25;1.10;;;4.30;96.80;;;;;;5058998;28;20455;-71
2020/12/30 02:08:12;;;;;;;4.45;1.40;;;4.20;96.70;;;;;;5076742;28;20028;-71
2020/12/30 02:10:40;;;;;;;1.35;0.95;;;4.20;96.60;;;;;;5059024;28;20196;-71
2020/12/30 02:13:05;;;;;;;3.17;1.38;;;4.20;96.70;;;;;;5058959;28;20025;-71
2020/12/30 02:15:32;;;;;;;3.30;2.20;;;4.20;97.20;;;;;;5058856;28;20447;-71
2020/12/30 02:18:00;;;;;;;4.35;1.73;;;4.20;97.60;;;;;;5076702;28;20078;-71
2020/12/30 02:20:30;;;;;;;3.88;2.17;;;4.20;97.70;;;;;;5058889;28;20079;-71
2020/12/30 02:23:03;;;;;;;6.68;3.08;;;4.20;97.90;;;;;;5076906;28;20043;-71
2020/12/30 02:25:28;;;;;;;143.35;9.65;;;4.20;97.90;;;;;;5076599;28;20066;-71
2020/12/30 02:27:54;;;;;;;42.53;3.92;;;4.20;98.00;;;;;;5076612;28;20033;-71
2020/12/30 02:30:20;;;;;;;376.35;19.15;;;4.20;98.00;;;;;;5076824;28;20412;-71
2020/12/30 02:32:47;;;;;;;275.27;12.30;;;4.20;98.00;;;;;;5076771;28;20320;-71
2020/12/30 02:35:13;;;;;;;185.20;10.00;;;4.20;98.00;;;;;;5058656;28;20024;-71
2020/12/30 02:37:39;;;;;;;90.80;5.97;;;4.20;98.00;;;;;;5076400;28;20397;-71
2020/12/30 02:40:05;;;;;;;6.13;3.45;;;4.20;98.00;;;;;;5058654;28;20020;-71
2020/12/30 02:42:31;;;;;;;8.27;3.70;;;4.10;97.90;;;;;;5076618;28;20298;-71
2020/12/30 02:45:05;;;;;;;9.43;3.78;;;4.00;98.00;;;;;;5076703;28;20020;-71
2020/12/30 02:47:31;;;;;;;7.63;3.28;;;4.00;98.00;;;;;;5076339;28;20039;-71
2020/12/30 02:49:57;;;;;;;9.65;3.70;;;4.00;98.00;;;;;;5058610;28;20024;-71
2020/12/30 02:52:22;;;;;;;12.95;3.63;;;4.00;98.00;;;;;;5076606;28;20051;-71
2020/12/30 02:54:48;;;;;;;6.40;3.60;;;4.00;98.00;;;;;;5058831;28;20424;-71
2020/12/30 02:57:14;;;;;;;6.30;3.75;;;4.00;98.00;;;;;;5076372;28;20029;-71
2020/12/30 02:59:39;;;;;;;7.57;2.88;;;4.00;98.00;;;;;;5076308;28;20016;-71
2020/12/30 03:02:05;;;;;;;6.95;2.97;;;4.00;98.00;;;;;;5076300;28;20037;-71
2020/12/30 03:04:30;;;;;;;9.98;3.53;;;4.00;98.00;;;;;;5076279;28;20028;-71
2020/12/30 03:06:57;;;;;;;6.60;2.75;;;4.00;98.00;;;;;;5058516;28;20035;-71
2020/12/30 03:09:23;;;;;;;6.03;3.10;;;4.10;98.00;;;;;;5076222;28;20044;-71
2020/12/30 03:11:49;;;;;;;4.70;2.80;;;4.00;97.90;;;;;;5076194;28;20408;-71
2020/12/30 03:14:15;;;;;;;6.53;3.08;;;4.10;97.90;;;;;;5076090;28;20024;-71
2020/12/30 03:16:41;;;;;;;5.30;3.20;;;4.10;97.70;;;;;;5076191;28;20478;-71
2020/12/30 03:19:07;;;;;;;9.30;3.03;;;4.10;97.70;;;;;;5076354;28;20033;-71
2020/12/30 03:21:32;;;;;;;9.45;3.00;;;4.10;97.80;;;;;;5076091;28;20321;-71
2020/12/30 03:23:58;;;;;;;4.65;2.65;;;4.00;97.90;;;;;;5076295;28;20024;-71
2020/12/30 03:26:24;;;;;;;12.45;2.92;;;4.00;98.00;;;;;;5076274;28;20302;-71
2020/12/30 03:28:50;;;;;;;8.88;3.00;;;4.00;98.00;;;;;;5076290;28;20026;-71
2020/12/30 03:31:16;;;;;;;5.97;3.00;;;4.00;98.00;;;;;;5075985;28;20494;-71
2020/12/30 03:33:42;;;;;;;5.97;2.90;;;4.00;98.00;;;;;;5076015;28;20055;-71
2020/12/30 03:36:08;;;;;;;6.30;2.63;;;4.00;98.00;;;;;;5075878;28;20059;-71
2020/12/30 03:38:34;;;;;;;6.20;3.22;;;4.00;98.00;;;;;;5061256;28;20016;-71
2020/12/30 03:40:59;;;;;;;7.93;3.22;;;4.00;98.00;;;;;;5079488;28;20025;-71
2020/12/30 03:43:25;;;;;;;4.68;3.42;;;4.00;98.00;;;;;;5079475;28;20032;-71
2020/12/30 03:45:50;;;;;;;4.90;2.83;;;4.00;98.00;;;;;;5061648;28;20371;-71
2020/12/30 03:48:16;;;;;;;6.97;3.13;;;4.10;97.90;;;;;;5079159;28;20055;-71
2020/12/30 03:50:42;;;;;;;5.70;2.85;;;4.10;97.80;;;;;;5079555;28;20029;-71
2020/12/30 03:53:07;;;;;;;4.88;3.10;;;4.10;97.60;;;;;;5079349;28;20313;-71
2020/12/30 03:55:33;;;;;;;7.68;3.50;;;4.20;97.60;;;;;;5079406;28;20081;-71
2020/12/30 03:57:58;;;;;;;7.22;3.60;;;4.20;97.50;;;;;;5079426;28;20025;-71
2020/12/30 04:00:24;;;;;;;7.43;3.30;;;4.10;97.40;;;;;;5061422;28;20036;-71
2020/12/30 04:02:50;;;;;;;7.85;3.45;;;4.10;97.50;;;;;;5079110;28;20055;-71
2020/12/30 04:05:15;;;;;;;7.75;2.85;;;4.10;97.60;;;;;;5079202;28;20028;-71
2020/12/30 04:07:41;;;;;;;9.93;4.28;;;4.10;97.60;;;;;;5079011;28;20024;-71
2020/12/30 04:10:06;;;;;;;5.45;2.70;;;4.10;97.70;;;;;;5078993;28;20099;-71
2020/12/30 04:12:32;;;;;;;9.35;2.90;;;4.10;97.70;;;;;;5078909;28;20029;-71
2020/12/30 04:14:58;;;;;;;5.85;2.88;;;4.10;97.80;;;;;;5079006;28;20037;-71
2020/12/30 04:17:23;;;;;;;6.28;2.53;;;4.10;97.80;;;;;;5078857;28;20024;-71
2020/12/30 04:19:49;;;;;;;5.95;3.58;;;4.10;97.70;;;;;;5078791;28;20048;-71
2020/12/30 04:22:15;;;;;;;6.57;2.83;;;4.10;97.60;;;;;;5078739;28;20357;-71
2020/12/30 04:24:40;;;;;;;10.10;3.53;;;4.20;97.50;;;;;;5078551;28;20106;-71
2020/12/30 04:27:06;;;;;;;10.07;3.20;;;4.10;97.40;;;;;;5078925;28;20020;-71
2020/12/30 04:29:31;;;;;;;4.50;2.60;;;4.10;97.60;;;;;;5078598;28;20129;-71
2020/12/30 04:31:57;;;;;;;8.93;4.30;;;4.00;97.80;;;;;;5078548;28;20079;-71
2020/12/30 04:34:23;;;;;;;6.40;3.22;;;4.00;98.00;;;;;;5078654;28;20036;-71
2020/12/30 04:36:48;;;;;;;4.00;2.70;;;3.90;98.00;;;;;;5078480;28;20027;-71
2020/12/30 04:39:14;;;;;;;10.57;3.30;;;3.90;98.00;;;;;;5078422;28;20024;-71
2020/12/30 04:41:43;;;;;;;6.82;3.53;;;3.80;98.00;;;;;;5078395;28;20428;-71
2020/12/30 04:44:09;;;;;;;8.73;3.63;;;3.80;98.00;;;;;;5060869;28;20032;-71
2020/12/30 04:46:35;;;;;;;5.43;3.67;;;3.80;98.00;;;;;;5078536;28;20032;-71
2020/12/30 04:49:01;;;;;;;4.47;3.50;;;3.90;98.00;;;;;;5077987;28;20463;-71
2020/12/30 04:51:27;;;;;;;5.55;3.40;;;3.90;98.00;;;;;;5078152;28;20092;-71
2020/12/30 04:53:57;;;;;;;5.85;3.53;;;3.90;97.90;;;;;;5078273;28;20100;-71
2020/12/30 04:56:40;;;;;;;5.50;3.05;;;3.90;97.90;;;;;;5078056;28;20032;-71
2020/12/30 04:59:12;;;;;;;3.58;1.92;;;3.90;97.50;;;;;;5078225;28;20044;-71
2020/12/30 05:01:51;;;;;;;3.38;2.25;;;3.90;97.10;;;;;;5078262;28;20035;-71
2020/12/30 05:04:19;;;;;;;3.58;1.70;;;3.90;96.90;;;;;;5077889;28;20031;-71
2020/12/30 05:06:49;;;;;;;4.05;2.08;;;3.90;96.90;;;;;;5078102;28;20035;-71
2020/12/30 05:09:20;;;;;;;5.97;2.35;;;3.90;97.00;;;;;;5078040;28;20031;-71
2020/12/30 05:11:46;;;;;;;4.20;2.85;;;3.90;97.00;;;;;;5060061;28;20029;-71
2020/12/30 05:14:11;;;;;;;3.25;2.03;;;3.90;97.30;;;;;;5077563;28;20047;-71
2020/12/30 05:16:37;;;;;;;2.67;2.20;;;4.00;97.10;;;;;;5077607;28;20031;-71
2020/12/30 05:19:07;;;;;;;3.58;2.40;;;4.00;97.30;;;;;;5077598;28;20040;-71
2020/12/30 05:21:32;;;;;;;3.63;2.72;;;4.00;97.20;;;;;;5077804;28;20024;-71
2020/12/30 05:23:58;;;;;;;7.20;3.60;;;4.10;97.20;;;;;;5077848;28;20025;-71
2020/12/30 05:26:24;;;;;;;5.45;3.80;;;4.10;97.20;;;;;;5077725;28;20405;-71
2020/12/30 05:28:52;;;;;;;5.75;4.00;;;4.10;96.80;;;;;;5077568;28;20024;-71
2020/12/30 05:31:18;;;;;;;10.20;3.92;;;4.10;96.60;;;;;;5077368;28;20021;-71
2020/12/30 05:33:43;;;;;;;4.70;3.55;;;4.00;96.70;;;;;;5077527;28;20031;-71
2020/12/30 05:36:10;;;;;;;7.35;3.78;;;4.00;96.70;;;;;;5077182;28;20137;-71
2020/12/30 05:38:35;;;;;;;7.50;3.78;;;4.10;96.80;;;;;;5077489;28;20331;-71
2020/12/30 05:41:01;;;;;;;6.80;3.75;;;4.10;96.80;;;;;;5077197;28;20031;-71
2020/12/30 05:43:27;;;;;;;7.85;3.63;;;4.10;96.80;;;;;;5077204;28;20027;-71
2020/12/30 05:45:54;;;;;;;5.15;2.95;;;4.10;96.90;;;;;;5077084;28;20103;-71
2020/12/30 05:48:21;;;;;;;8.15;3.17;;;4.10;97.00;;;;;;5077013;28;20370;-71
2020/12/30 05:50:54;;;;;;;5.32;3.55;;;4.10;97.00;;;;;;5076987;28;20059;-71
2020/12/30 05:53:21;;;;;;;4.32;3.00;;;4.10;97.10;;;;;;5077045;28;20029;-71
2020/12/30 05:55:49;;;;;;;5.68;3.35;;;4.10;97.00;;;;;;5077160;28;20032;-71
2020/12/30 05:58:17;;;;;;;4.18;3.25;;;4.10;96.90;;;;;;5076975;28;20298;-71
2020/12/30 06:00:43;;;;;;;5.85;3.90;;;4.00;96.70;;;;;;5076452;28;20023;-71
2020/12/30 06:03:13;;;;;;;5.80;4.35;;;4.00;96.30;;;;;;5076876;28;20027;-71
2020/12/30 06:05:39;;;;;;;8.10;3.15;;;3.90;96.20;;;;;;5076787;28;20024;-71
2020/12/30 06:08:05;;;;;;;4.05;3.17;;;3.80;96.20;;;;;;5077067;28;20078;-71
2020/12/30 06:10:32;;;;;;;4.05;2.88;;;3.70;96.50;;;;;;5059066;28;20020;-71
2020/12/30 06:13:02;;;;;;;4.18;2.25;;;3.60;96.20;;;;;;5076713;28;20116;-71
2020/12/30 06:15:29;;;;;;;3.28;2.13;;;3.50;96.60;;;;;;5076677;28;20030;-71
2020/12/30 06:18:06;;;;;;;5.45;2.38;;;3.50;96.70;;;;;;5076993;28;20031;-71
2020/12/30 06:20:38;;;;;;;3.67;2.08;;;3.40;97.00;;;;;;5076971;28;20016;-71
2020/12/30 06:23:08;;;;;;;3.85;1.75;;;3.40;96.80;;;;;;5076776;28;20413;-71
2020/12/30 06:25:36;;;;;;;5.82;3.58;;;3.40;96.60;;;;;;5076675;28;20052;-71
2020/12/30 06:28:14;;;;;;;48.80;6.90;;;3.30;96.10;;;;;;5076582;28;20024;-71
2020/12/30 06:30:47;;;;;;;11.18;6.97;;;3.30;96.40;;;;;;5076880;28;20107;-71
2020/12/30 06:33:14;;;;;;;10.25;6.20;;;3.20;97.10;;;;;;5076724;28;20059;-71
2020/12/30 06:35:41;;;;;;;8.35;5.20;;;3.20;97.30;;;;;;5076676;28;20028;-71
2020/12/30 06:38:23;;;;;;;7.93;4.70;;;3.20;97.10;;;;;;5076516;28;20316;-71
2020/12/30 06:40:58;;;;;;;4.43;3.60;;;3.20;97.40;;;;;;5058954;28;20297;-71
2020/12/30 06:43:50;;;;;;;6.40;3.42;;;3.20;96.90;;;;;;5058800;28;20056;-71
2020/12/30 06:46:37;;;;;;;9.00;3.63;;;3.10;96.80;;;;;;5076462;28;20017;-71
2020/12/30 06:49:06;;;;;;;4.30;3.08;;;3.20;97.30;;;;;;5076417;28;20442;-71
2020/12/30 06:51:36;;;;;;;5.78;3.75;;;3.30;97.40;;;;;;5076703;28;20472;-71
2020/12/30 06:54:03;;;;;;;4.35;2.63;;;3.40;97.80;;;;;;5076673;28;20147;-71
2020/12/30 06:56:45;;;;;;;6.07;3.55;;;3.50;97.90;;;;;;5076630;28;20316;-71
2020/12/30 06:59:27;;;;;;;5.20;3.58;;;3.60;98.00;;;;;;5076342;28;20020;-71
2020/12/30 07:01:55;;;;;;;7.68;5.07;;;3.70;97.90;;;;;;5058645;28;20104;-71
2020/12/30 07:04:22;;;;;;;9.02;5.28;;;3.70;97.70;;;;;;5076466;28;20127;-71
2020/12/30 07:06:47;;;;;;;8.07;5.03;;;3.80;97.80;;;;;;5076383;28;20033;-71
2020/12/30 07:09:14;;;;;;;8.90;4.78;;;3.80;97.80;;;;;;5076231;28;20432;-71
2020/12/30 07:11:40;;;;;;;5.72;4.82;;;3.90;97.70;;;;;;5076770;28;20048;-71
2020/12/30 07:14:10;;;;;;;4.90;4.07;;;3.90;97.60;;;;;;5080019;28;20056;-71
2020/12/30 07:16:37;;;;;;;6.20;4.15;;;3.90;97.60;;;;;;5080010;28;20108;-71
2020/12/30 07:19:14;;;;;;;4.85;3.97;;;4.00;97.20;;;;;;5079855;28;20025;-71
2020/12/30 07:21:57;;;;;;;6.53;5.53;;;4.00;97.00;;;;;;5062105;28;20115;-71
2020/12/30 07:24:30;;;;;;;8.18;5.88;;;4.00;96.90;;;;;;5079744;28;20032;-71
2020/12/30 07:26:58;;;;;;;132.23;9.93;;;4.00;96.90;;;;;;5080080;28;20112;-71
2020/12/30 07:29:24;;;;;;;44.75;7.00;;;3.90;97.20;;;;;;5079680;28;20021;-71
2020/12/30 07:31:53;;;;;;;70.75;8.25;;;3.90;97.50;;;;;;5061978;28;20432;-71
2020/12/30 07:34:46;;;;;;;584.55;23.98;;;4.00;97.60;;;;;;5061759;28;20028;-71
2020/12/30 07:37:13;;;;;;;469.30;23.30;;;4.00;97.80;;;;;;5073159;28;20400;-71
2020/12/30 07:39:49;;;;;;;211.15;15.98;;;4.00;98.00;;;;;;5079490;28;20032;-71
2020/12/30 07:42:15;;;;;;;;;;;4.10;98.00;;;;;;5080071;28;20024;-71
2020/12/30 07:44:49;;;;;;;8.40;4.70;;;4.20;98.00;;;;;;5079496;28;20296;-71
2020/12/30 07:47:16;;;;;;;8.30;4.85;;;4.20;97.70;;;;;;5061695;28;20067;-71
2020/12/30 07:49:42;;;;;;;7.20;4.18;;;4.30;97.00;;;;;;5079179;28;20123;-71
2020/12/30 07:52:08;;;;;;;6.80;3.30;;;4.30;96.50;;;;;;5061567;28;20071;-71
2020/12/30 07:54:34;;;;;;;12.48;5.15;;;4.30;96.10;;;;;;5079574;28;20029;-71
2020/12/30 07:57:07;;;;;;;4.95;3.20;;;4.40;96.20;;;;;;5079515;28;20320;-71
2020/12/30 07:59:33;;;;;;;4.30;2.95;;;4.50;95.50;;;;;;5079233;28;20021;-71
2020/12/30 08:02:06;;;;;;;3.92;2.13;;;4.50;95.10;;;;;;5079177;28;20046;-71
2020/12/30 08:04:34;;;;;;;4.40;2.83;;;4.50;94.90;;;;;;5079034;28;20024;-71
2020/12/30 08:07:06;;;;;;;2.92;1.80;;;4.60;95.10;;;;;;5079078;28;20346;-71
2020/12/30 08:09:33;;;;;;;3.90;2.15;;;4.60;95.40;;;;;;5079006;28;20059;-71
2020/12/30 08:12:04;;;;;;;3.33;1.60;;;4.60;95.50;;;;;;5078923;28;20158;-71
2020/12/30 08:14:31;;;;;;;4.70;4.20;;;4.70;95.60;;;;;;5078846;28;20024;-71
2020/12/30 08:17:13;;;;;;;5.35;4.13;;;4.80;95.40;;;;;;5078907;28;20112;-71
2020/12/30 08:19:45;;;;;;;5.53;4.05;;;4.90;95.50;;;;;;5078926;28;20025;-71
2020/12/30 08:22:22;;;;;;;7.22;5.45;;;4.90;96.00;;;;;;5078809;28;20025;-71
2020/12/30 08:24:50;;;;;;;6.32;5.40;;;5.00;96.10;;;;;;5079118;28;20366;-71
2020/12/30 08:27:21;;;;;;;6.13;4.78;;;5.10;95.90;;;;;;5078734;28;20032;-71
2020/12/30 08:29:47;;;;;;;6.38;5.20;;;5.10;95.60;;;;;;5078743;28;20324;-71
2020/12/30 08:32:39;;;;;;;6.97;5.45;;;5.10;95.60;;;;;;5078633;28;20028;-71
2020/12/30 08:35:11;;;;;;;8.00;5.22;;;5.20;95.40;;;;;;5067521;28;20060;-71
2020/12/30 08:37:40;;;;;;;4.75;3.78;;;5.10;95.10;;;;;;5078755;28;20312;-71
2020/12/30 08:40:11;;;;;;;3.75;3.13;;;5.10;93.90;;;;;;5078348;28;20022;-71
2020/12/30 08:43:07;;;;;;;8.63;3.88;;;4.90;93.20;;;;;;5078656;28;20036;-71
2020/12/30 08:45:34;;;;;;;5.83;3.63;;;4.80;92.50;;;;;;5078400;28;20021;-71
2020/12/30 08:48:20;;;;;;;4.35;3.60;;;4.70;92.60;;;;;;5078059;28;20721;-71
2020/12/30 08:50:49;;;;;;;4.68;3.38;;;4.60;92.60;;;;;;5078231;28;20324;-71
2020/12/30 08:53:38;;;;;;;4.80;4.10;;;4.60;92.90;;;;;;5078082;28;20033;-71
2020/12/30 08:56:08;;;;;;;5.13;3.50;;;4.50;93.20;;;;;;5078011;28;20060;-71
2020/12/30 08:58:34;;;;;;;6.82;4.00;;;4.50;93.70;;;;;;5060356;28;20421;-71
2020/12/30 09:01:00;;;;;;;6.43;4.05;;;4.40;93.60;;;;;;5078022;28;20423;-71
2020/12/30 09:03:29;;;;;;;6.70;4.78;;;4.40;93.30;;;;;;5077999;28;20017;-71
2020/12/30 09:05:57;;;;;;;7.53;3.72;;;4.30;92.90;;;;;;5060139;28;20039;-71
2020/12/30 09:08:28;;;;;;;8.50;4.43;;;4.20;93.30;;;;;;5078012;28;20476;-71
2020/12/30 09:10:54;;;;;;;5.70;4.40;;;4.20;93.60;;;;;;5078141;28;20024;-71
2020/12/30 09:13:28;;;;;;;6.10;4.50;;;4.30;93.80;;;;;;5077843;28;20020;-71
2020/12/30 09:15:57;;;;;;;5.57;4.32;;;4.30;94.10;;;;;;5077624;28;20032;-71
2020/12/30 09:18:30;;;;;;;7.07;5.20;;;4.40;93.90;;;;;;5077588;28;20442;-71
2020/12/30 09:20:57;;;;;;;6.97;4.97;;;4.40;94.20;;;;;;5059974;28;20066;-71
2020/12/30 09:23:23;;;;;;;8.60;5.80;;;4.50;94.30;;;;;;5077843;28;20016;-71
2020/12/30 09:25:50;;;;;;;10.80;6.15;;;4.60;94.60;;;;;;5077452;28;20423;-71
2020/12/30 09:28:17;;;;;;;10.35;6.03;;;4.70;94.60;;;;;;5059764;28;20032;-71
2020/12/30 09:30:44;;;;;;;7.47;5.90;;;4.70;95.00;;;;;;5077414;28;20375;-71
2020/12/30 09:33:16;;;;;;;8.02;5.35;;;4.70;95.20;;;;;;5077600;28;20078;-71
2020/12/30 09:35:43;;;;;;;10.02;4.97;;;5.00;95.90;;;;;;5076733;28;20032;-71
2020/12/30 09:38:09;;;;;;;7.63;4.68;;;5.30;95.40;;;;;;5059564;28;20020;-71
2020/12/30 09:40:43;;;;;;;7.18;4.00;;;5.60;95.10;;;;;;5077259;28;20077;-71
2020/12/30 09:43:13;;;;;;;5.22;3.80;;;6.00;94.10;;;;;;5077203;28;20032;-71
2020/12/30 09:45:40;;;;;;;3.75;3.38;;;6.60;90.60;;;;;;5077243;28;20052;-71
2020/12/30 09:48:14;;;;;;;2.83;1.80;;;7.30;88.80;;;;;;5077144;28;20056;-72
2020/12/30 09:50:41;;;;;;;5.78;2.47;;;8.20;83.30;;;;;;5077444;28;20016;-71
2020/12/30 09:53:08;;;;;;;3.08;2.45;;;8.50;81.30;;;;;;5077136;28;20032;-71
2020/12/30 09:55:33;;;;;;;6.45;5.15;;;9.10;82.20;;;;;;5076879;28;20032;-72
2020/12/30 09:57:59;;;;;;;7.78;5.40;;;9.60;79.10;;;;;;5077152;28;20024;-71
2020/12/30 10:00:25;;;;;;;7.68;5.53;;;9.40;79.00;;;;;;5076970;28;20016;-72
2020/12/30 10:02:51;;;;;;;6.40;4.82;;;8.90;79.30;;;;;;5076998;28;20360;-71
2020/12/30 10:05:16;;;;;;;5.88;4.13;;;8.30;79.60;;;;;;5059152;28;20032;-71
2020/12/30 10:07:42;;;;;;;7.15;4.30;;;7.70;80.80;;;;;;5075029;28;20125;-71
2020/12/30 10:10:08;;;;;;;6.68;4.90;;;7.40;82.50;;;;;;5085039;28;20093;-71
2020/12/30 10:12:40;;;;;;;11.80;7.10;;;7.20;83.30;;;;;;5097075;28;20081;-71
2020/12/30 10:15:10;;;;;;;6.15;4.90;;;7.10;84.00;;;;;;5097195;28;20024;-71
2020/12/30 10:17:37;;;;;;;6.93;4.07;;;7.50;83.40;;;;;;5097189;28;20066;-71
2020/12/30 10:20:08;;;;;;;5.45;4.20;;;8.20;82.40;;;;;;5096959;28;20020;-72
2020/12/30 10:22:34;;;;;;;3.90;2.53;;;9.30;80.40;;;;;;5078994;28;20028;-72
2020/12/30 10:25:00;;;;;;;3.30;2.67;;;10.40;75.70;;;;;;5078910;28;20047;-72
2020/12/30 10:27:26;;;;;;;6.13;2.60;;;11.20;71.90;;;;;;5097145;28;20404;-72
2020/12/30 10:29:52;;;;;;;3.30;2.15;;;11.80;70.90;;;;;;5096830;28;20028;-72
2020/12/30 10:32:18;;;;;;;2.72;2.08;;;11.40;70.90;;;;;;5096784;28;20489;-71
2020/12/30 10:34:43;;;;;;;3.13;2.13;;;10.60;71.50;;;;;;5096705;28;20024;-71
2020/12/30 10:37:09;;;;;;;6.93;3.10;;;9.80;74.30;;;;;;5096806;28;20323;-72
2020/12/30 10:39:35;;;;;;;4.53;3.65;;;9.10;77.20;;;;;;5096723;28;20031;-72
2020/12/30 10:42:02;;;;;;;5.22;2.95;;;8.60;80.10;;;;;;5096954;28;20027;-72
2020/12/30 10:44:29;;;;;;;3.67;3.00;;;8.40;82.40;;;;;;5096929;28;20051;-71
2020/12/30 10:46:55;;;;;;;3.53;2.88;;;8.20;83.40;;;;;;5099489;28;20028;-71
2020/12/30 10:49:21;;;;;;;4.35;3.22;;;7.80;82.70;;;;;;5100694;28;20054;-71
2020/12/30 10:51:51;;;;;;;4.15;2.90;;;7.60;83.40;;;;;;5082941;28;20109;-71
2020/12/30 10:54:17;;;;;;;5.30;3.20;;;7.90;82.70;;;;;;5101147;28;20098;-71
2020/12/30 10:56:50;;;;;;;4.25;3.00;;;8.10;81.70;;;;;;5100719;28;20020;-72
2020/12/30 10:59:17;;;;;;;3.70;2.58;;;8.20;82.20;;;;;;5100765;28;20028;-72
2020/12/30 11:01:43;;;;;;;4.95;2.65;;;8.50;78.40;;;;;;5100644;28;20030;-72
2020/12/30 11:04:09;;;;;;;6.15;2.83;;;8.70;77.90;;;;;;5100592;28;20031;-72
2020/12/30 11:06:35;;;;;;;4.88;2.78;;;8.70;78.10;;;;;;5100547;28;20029;-72
2020/12/30 11:09:00;;;;;;;5.15;3.75;;;8.50;79.60;;;;;;5082483;28;20028;-72
2020/12/30 11:11:26;;;;;;;7.43;4.55;;;8.20;81.10;;;;;;5100426;28;20077;-72
2020/12/30 11:13:52;;;;;;;5.18;4.22;;;7.90;83.60;;;;;;5100662;28;20024;-71
2020/12/30 11:16:17;;;;;;;5.97;5.22;;;7.70;83.00;;;;;;5100489;28;20028;-72
2020/12/30 11:18:43;;;;;;;5.90;4.75;;;7.40;83.70;;;;;;5100373;28;20035;-71
2020/12/30 11:21:09;;;;;;;6.07;5.10;;;7.60;83.90;;;;;;5082273;28;20024;-72
2020/12/30 11:23:35;;;;;;;6.00;5.32;;;8.60;81.70;;;;;;5100394;28;20028;-72
2020/12/30 11:26:01;;;;;;;5.15;4.45;;;9.80;80.40;;;;;;5100092;28;20034;-72
2020/12/30 11:28:26;;;;;;;5.20;4.13;;;10.90;74.10;;;;;;5100118;28;20031;-72
2020/12/30 11:30:52;;;;;;;5.15;4.00;;;11.80;72.10;;;;;;5100027;28;20320;-72
2020/12/30 11:33:18;;;;;;;5.20;4.30;;;12.10;71.30;;;;;;5100171;28;20077;-72
2020/12/30 11:35:46;;;;;;;5.85;4.15;;;12.00;68.30;;;;;;5099837;28;20020;-72
2020/12/30 11:38:12;;;;;;;5.05;4.55;;;11.90;70.50;;;;;;5081993;28;20081;-72
2020/12/30 11:40:40;;;;;;;4.50;4.07;;;12.00;69.70;;;;;;5099838;28;20028;-72
2020/12/30 11:43:06;;;;;;;6.22;4.07;;;12.10;68.00;;;;;;5100034;28;20035;-72
2020/12/30 11:45:31;;;;;;;5.15;4.38;;;12.20;69.30;;;;;;5081772;28;20024;-72
2020/12/30 11:48:00;;;;;;;4.22;3.63;;;11.80;69.80;;;;;;5081634;28;20481;-72
2020/12/30 11:50:26;;;;;;;4.57;3.97;;;11.70;70.50;;;;;;5099670;28;20088;-72
2020/12/30 11:52:52;;;;;;;6.75;3.85;;;12.20;69.90;;;;;;5099543;28;20023;-72
2020/12/30 11:55:17;;;;;;;6.95;3.58;;;12.30;68.30;;;;;;5099603;28;20036;-72
2020/12/30 11:57:43;;;;;;;6.30;3.78;;;11.80;70.20;;;;;;5098680;28;20028;-72
2020/12/30 12:00:10;;;;;;;4.13;3.67;;;11.10;69.90;;;;;;5099690;28;20028;-72
2020/12/30 12:02:36;;;;;;;5.15;4.40;;;10.20;71.80;;;;;;5099360;28;20024;-72
2020/12/30 12:05:02;;;;;;;6.00;3.83;;;9.60;74.20;;;;;;5099661;28;20027;-72
2020/12/30 12:07:29;;;;;;;5.72;3.55;;;9.10;76.50;;;;;;5099653;28;20081;-72
2020/12/30 12:09:55;;;;;;;7.25;4.47;;;8.60;78.00;;;;;;5099280;28;20020;-71
2020/12/30 12:12:21;;;;;;;5.68;4.57;;;8.40;80.90;;;;;;5099247;28;20103;-72
2020/12/30 12:14:46;;;;;;;4.00;3.30;;;8.20;81.60;;;;;;5099147;28;20146;-72
2020/12/30 12:17:12;;;;;;;4.35;3.60;;;7.90;81.20;;;;;;5099456;28;20016;-72
2020/12/30 12:19:38;;;;;;;3.95;3.20;;;7.80;82.30;;;;;;5099124;28;20028;-72
2020/12/30 12:22:04;;;;;;;4.85;3.47;;;7.70;79.50;;;;;;5081135;28;20350;-72
2020/12/30 12:24:30;;;;;;;6.80;4.45;;;7.60;82.50;;;;;;5099375;28;20039;-71
2020/12/30 12:26:55;;;;;;;6.15;4.55;;;7.50;82.70;;;;;;5099244;28;20385;-71
2020/12/30 12:29:36;;;;;;;6.55;4.25;;;7.30;82.90;;;;;;5098915;28;20473;-72
2020/12/30 12:32:21;;;;;;;9.48;4.85;;;7.10;84.70;;;;;;5098850;28;20429;-71
2020/12/30 12:34:49;;;;;;;5.60;4.97;;;7.00;85.20;;;;;;5098750;28;20030;-72
2020/12/30 12:37:16;;;;;;;8.05;5.32;;;6.80;86.00;;;;;;5098771;28;20031;-71
2020/12/30 12:39:43;;;;;;;6.50;5.32;;;6.60;87.10;;;;;;5098805;28;20320;-71
2020/12/30 12:42:09;;;;;;;10.85;6.00;;;6.50;86.30;;;;;;5098666;28;20055;-71
2020/12/30 12:44:36;;;;;;;7.55;5.65;;;6.30;85.80;;;;;;5098654;28;20052;-71
2020/12/30 12:47:02;;;;;;;6.25;5.60;;;6.10;86.80;;;;;;5098614;28;20027;-71
2020/12/30 12:49:28;;;;;;;7.72;6.70;;;6.10;87.90;;;;;;5080488;28;20440;-71
2020/12/30 12:51:57;;;;;;;7.78;5.78;;;6.00;87.80;;;;;;5098510;28;20342;-71
2020/12/30 12:54:23;;;;;;;5.97;5.35;;;6.00;88.00;;;;;;5098766;28;20039;-71
2020/12/30 12:57:00;;;;;;;7.15;5.50;;;5.90;87.70;;;;;;5098413;28;20028;-71
2020/12/30 12:59:26;;;;;;;5.43;4.90;;;6.00;88.50;;;;;;5098635;28;20028;-71